Time;durP1;ratioP1;P1;durP2;ratioP2;P2;SDS_P1;SDS_P2;PMS_P1;PMS_P2;Temp;Humidity;BMP_temperature;BMP_pressure;BME280_temperature;BME280_humidity;BME280_pressure;Samples;Min_cycle;Max_cycle;Signal;HPM_P1;HPM_P2
2022/05/09 00:00:22;;;;;;;5.80;1.40;;;19.20;68.20;;;;;;5094371;23;20369;-51
2022/05/09 00:02:25;;;;;;;2.17;1.13;;;19.20;68.20;;;;;;5091779;23;20028;-50
2022/05/09 00:04:27;;;;;;;2.78;1.02;;;19.20;68.20;;;;;;5099378;23;20032;-51
2022/05/09 00:06:29;;;;;;;3.80;0.60;;;19.30;68.20;;;;;;5073306;23;20048;-55
2022/05/09 00:08:32;;;;;;;5.22;1.33;;;19.30;68.20;;;;;;5096848;23;20032;-51
2022/05/09 00:10:35;;;;;;;6.65;0.95;;;19.30;68.10;;;;;;5098176;23;20425;-56
2022/05/09 00:12:37;;;;;;;2.58;0.90;;;19.30;68.20;;;;;;5099435;23;20032;-51
2022/05/09 00:14:39;;;;;;;2.30;1.00;;;19.30;68.20;;;;;;5068459;23;20031;-56
2022/05/09 00:16:42;;;;;;;1.70;0.98;;;19.30;68.20;;;;;;5070187;23;20343;-53
2022/05/09 00:18:44;;;;;;;3.03;1.13;;;19.30;67.90;;;;;;5100146;23;20040;-50
2022/05/09 00:20:46;;;;;;;3.20;1.52;;;19.40;68.10;;;;;;5100206;23;20433;-51
2022/05/09 00:22:54;;;;;;;4.70;1.00;;;19.40;68.10;;;;;;5096595;23;20421;-52
2022/05/09 00:25:00;;;;;;;2.22;0.77;;;19.40;68.10;;;;;;5069450;23;20792;-52
2022/05/09 00:27:03;;;;;;;2.35;0.90;;;19.40;68.10;;;;;;5070260;23;20049;-53
2022/05/09 00:29:07;;;;;;;3.55;1.08;;;19.50;68.00;;;;;;5076062;23;20426;-52
2022/05/09 00:31:09;;;;;;;1.33;0.45;;;19.50;68.00;;;;;;5098068;23;20031;-52
2022/05/09 00:33:11;;;;;;;2.33;1.00;;;19.50;68.10;;;;;;5096685;23;20029;-48
2022/05/09 00:35:14;;;;;;;4.32;1.08;;;19.50;68.10;;;;;;5101952;23;20029;-58
2022/05/09 00:37:16;;;;;;;;;;;19.50;68.00;;;;;;5100114;23;20536;-51
2022/05/09 00:39:18;;;;;;;4.72;0.73;;;19.50;68.10;;;;;;5097938;23;19920;-51
2022/05/09 00:41:39;;;;;;;1.95;0.75;;;19.50;68.00;;;;;;5101941;23;20417;-52
2022/05/09 00:43:41;;;;;;;3.00;0.68;;;19.50;68.00;;;;;;5096148;23;20127;-54
2022/05/09 00:45:43;;;;;;;2.45;0.70;;;19.50;68.00;;;;;;5098549;23;20024;-54
2022/05/09 00:47:46;;;;;;;1.75;0.65;;;19.60;68.10;;;;;;5101160;23;20532;-51
2022/05/09 00:49:55;;;;;;;1.92;0.60;;;19.60;68.00;;;;;;5068855;23;20529;-53
2022/05/09 00:52:27;;;;;;;2.55;0.80;;;19.60;68.00;;;;;;5097725;23;20456;-50
2022/05/09 00:54:40;;;;;;;3.53;0.65;;;19.60;68.10;;;;;;5100910;23;20140;-56
2022/05/09 00:56:56;;;;;;;1.65;0.65;;;19.60;68.00;;;;;;5099900;23;20713;-55
2022/05/09 00:59:03;;;;;;;0.80;0.60;;;19.60;67.90;;;;;;5099446;23;20032;-52
2022/05/09 01:01:07;;;;;;;1.38;0.60;;;19.70;67.80;;;;;;5101147;23;20110;-52
2022/05/09 01:03:43;;;;;;;1.35;0.70;;;19.70;67.80;;;;;;5098707;23;20110;-52
2022/05/09 01:05:50;;;;;;;2.15;0.60;;;19.70;67.70;;;;;;5086244;23;20024;-50
2022/05/09 01:07:53;;;;;;;0.95;0.65;;;19.70;67.70;;;;;;5094365;23;20032;-53
2022/05/09 01:09:56;;;;;;;0.45;0.45;;;19.80;68.10;;;;;;5098043;23;20307;-52
2022/05/09 01:11:58;;;;;;;1.00;0.60;;;19.80;67.60;;;;;;5074363;23;20075;-53
2022/05/09 01:14:11;;;;;;;0.50;0.40;;;19.80;67.60;;;;;;5095429;23;20082;-54
2022/05/09 01:16:16;;;;;;;1.65;0.82;;;19.80;67.60;;;;;;5092114;23;20397;-55
2022/05/09 01:18:19;;;;;;;0.63;0.40;;;19.80;67.60;;;;;;5097554;23;20029;-53
2022/05/09 01:20:21;;;;;;;1.93;0.50;;;19.80;67.50;;;;;;5101554;23;20040;-54
2022/05/09 01:22:28;;;;;;;0.60;0.45;;;19.80;67.40;;;;;;5095642;23;20463;-56
2022/05/09 01:24:30;;;;;;;0.77;0.60;;;19.80;67.50;;;;;;5096307;23;20046;-56
2022/05/09 01:26:34;;;;;;;0.73;0.50;;;19.90;67.40;;;;;;5091429;23;20365;-57
2022/05/09 01:28:35;;;;;;;;;;;19.90;67.60;;;;;;5099412;23;20468;-57
2022/05/09 01:30:52;;;;;;;1.30;0.45;;;19.90;67.50;;;;;;5069085;23;20321;-54
2022/05/09 01:32:59;;;;;;;0.85;0.47;;;19.90;67.50;;;;;;5099928;23;20810;-52
2022/05/09 01:35:18;;;;;;;0.75;0.68;;;19.90;67.50;;;;;;5069646;23;20313;-55
2022/05/09 01:37:23;;;;;;;2.47;0.60;;;19.90;67.50;;;;;;5109760;23;20107;-52
2022/05/09 01:39:25;;;;;;;0.60;0.50;;;19.90;67.50;;;;;;5108936;23;20524;-52
2022/05/09 01:41:29;;;;;;;1.35;0.45;;;20.00;67.60;;;;;;5106983;23;20125;-53
2022/05/09 01:43:40;;;;;;;1.63;0.63;;;20.00;67.60;;;;;;5084943;23;20040;-56
2022/05/09 01:45:42;;;;;;;1.05;0.55;;;20.00;67.50;;;;;;5113867;23;20038;-54
2022/05/09 01:50:05;;;;;;;1.08;0.55;;;20.00;67.50;;;;;;5101832;23;20028;-57
2022/05/09 01:52:09;;;;;;;2.57;0.93;;;20.00;67.70;;;;;;5097189;23;20391;-56
2022/05/09 01:54:12;;;;;;;2.28;0.80;;;20.00;67.60;;;;;;5095172;23;20547;-56
2022/05/09 01:56:14;;;;;;;;;;;20.00;67.60;;;;;;5071105;23;20032;-54
2022/05/09 01:58:16;;;;;;;4.22;0.77;;;20.00;67.50;;;;;;5100656;23;19931;-55
2022/05/09 02:00:18;;;;;;;1.88;0.77;;;20.10;67.70;;;;;;5093028;23;20314;-54
2022/05/09 02:02:24;;;;;;;1.95;0.70;;;20.00;67.50;;;;;;5092348;23;20348;-54
2022/05/09 02:04:27;;;;;;;0.95;0.63;;;20.10;67.60;;;;;;5093998;23;20209;-52
2022/05/09 02:06:30;;;;;;;1.70;0.70;;;20.10;67.50;;;;;;5097751;23;20032;-49
2022/05/09 02:08:32;;;;;;;1.80;0.75;;;20.10;67.50;;;;;;5068977;23;20056;-58
2022/05/09 02:10:34;;;;;;;1.52;0.85;;;20.10;67.50;;;;;;5092079;23;20032;-56
2022/05/09 02:12:36;;;;;;;1.13;0.60;;;20.10;67.50;;;;;;5097185;23;20035;-49
2022/05/09 02:14:39;;;;;;;1.45;0.77;;;20.10;67.50;;;;;;5072598;23;20070;-55
2022/05/09 02:16:41;;;;;;;0.80;0.60;;;20.20;67.50;;;;;;5093720;23;20055;-54
2022/05/09 02:18:43;;;;;;;2.20;0.60;;;20.20;68.20;;;;;;5097037;23;20025;-51
2022/05/09 02:20:46;;;;;;;2.13;0.88;;;20.20;68.30;;;;;;5068388;23;20033;-49
2022/05/09 02:22:48;;;;;;;1.55;0.50;;;20.20;67.80;;;;;;5090298;23;20059;-55
2022/05/09 02:24:52;;;;;;;6.03;1.02;;;20.20;67.70;;;;;;5093788;23;20033;-54
2022/05/09 02:26:55;;;;;;;1.70;0.60;;;20.20;67.70;;;;;;5099138;23;20055;-55
2022/05/09 02:28:57;;;;;;;6.32;0.70;;;20.20;67.80;;;;;;5068531;23;20032;-57
2022/05/09 02:30:59;;;;;;;1.65;0.73;;;20.20;67.90;;;;;;5092722;23;20739;-56
2022/05/09 02:33:01;;;;;;;0.93;0.60;;;20.20;67.80;;;;;;5098055;23;20024;-57
2022/05/09 02:35:03;;;;;;;1.25;0.60;;;20.20;67.80;;;;;;5097075;23;20054;-56
2022/05/09 02:37:06;;;;;;;2.42;0.93;;;20.20;67.80;;;;;;5095747;23;20128;-54
2022/05/09 02:39:08;;;;;;;2.38;0.60;;;20.20;67.90;;;;;;5094631;23;20028;-53
2022/05/09 02:41:10;;;;;;;1.05;0.68;;;20.30;67.90;;;;;;5099559;23;20039;-54
2022/05/09 02:43:12;;;;;;;1.70;0.70;;;20.30;67.70;;;;;;5092142;23;20029;-52
2022/05/09 02:45:14;;;;;;;1.10;0.68;;;20.20;67.70;;;;;;5093657;23;20392;-53
2022/05/09 02:47:17;;;;;;;1.55;0.57;;;20.30;67.70;;;;;;5100766;23;20084;-53
2022/05/09 02:49:19;;;;;;;1.35;0.55;;;20.30;67.70;;;;;;5097048;23;20036;-53
2022/05/09 02:51:22;;;;;;;1.80;0.82;;;20.30;67.70;;;;;;5095565;23;20402;-54
2022/05/09 02:53:24;;;;;;;1.30;0.50;;;20.30;67.70;;;;;;5099499;23;20035;-55
2022/05/09 02:55:26;;;;;;;0.45;0.30;;;20.30;67.70;;;;;;5098066;23;20032;-53
2022/05/09 02:57:28;;;;;;;0.90;0.52;;;20.30;67.70;;;;;;5094477;23;20108;-54
2022/05/09 02:59:30;;;;;;;1.77;0.90;;;20.30;67.60;;;;;;5092800;23;20032;-55
2022/05/09 03:01:32;;;;;;;1.45;0.40;;;20.30;67.00;;;;;;5096341;23;20025;-50
2022/05/09 03:05:55;;;;;;;1.38;0.57;;;20.30;67.60;;;;;;5073975;23;20231;-54
2022/05/09 03:07:57;;;;;;;1.98;0.60;;;20.40;67.80;;;;;;5094149;23;20126;-54
2022/05/09 03:09:59;;;;;;;2.30;0.50;;;20.40;67.70;;;;;;5093397;23;20040;-54
2022/05/09 03:12:01;;;;;;;1.48;0.40;;;20.40;67.70;;;;;;5099428;23;20029;-49
2022/05/09 03:14:05;;;;;;;0.60;0.50;;;20.40;67.70;;;;;;5096983;23;20120;-55
2022/05/09 03:16:09;;;;;;;1.50;0.57;;;20.40;67.80;;;;;;5097144;23;20044;-55
2022/05/09 03:18:13;;;;;;;0.50;0.30;;;20.40;67.80;;;;;;5096369;23;20428;-52
2022/05/09 03:20:15;;;;;;;1.10;0.57;;;20.40;67.80;;;;;;5105596;23;20020;-53
2022/05/09 03:22:17;;;;;;;1.65;0.50;;;20.40;67.80;;;;;;5101467;23;20040;-56
2022/05/09 03:24:19;;;;;;;0.63;0.40;;;20.40;67.80;;;;;;5094225;23;20037;-52
2022/05/09 03:26:22;;;;;;;1.35;0.40;;;20.40;67.70;;;;;;5099193;23;20391;-53
2022/05/09 03:28:26;;;;;;;0.85;0.40;;;20.40;67.80;;;;;;5068927;23;20529;-55
2022/05/09 03:30:29;;;;;;;0.40;0.40;;;20.40;67.80;;;;;;5094205;23;20111;-49
2022/05/09 03:32:31;;;;;;;0.68;0.40;;;20.40;67.70;;;;;;5066502;23;20032;-57
2022/05/09 03:34:33;;;;;;;0.93;0.52;;;20.40;67.70;;;;;;5045290;23;20029;-57
2022/05/09 03:36:36;;;;;;;2.25;0.50;;;20.50;67.80;;;;;;5091409;23;20032;-57
2022/05/09 03:38:41;;;;;;;1.02;0.30;;;20.50;67.70;;;;;;5091657;23;20559;-53
2022/05/09 03:40:43;;;;;;;0.68;0.40;;;20.50;67.70;;;;;;5068367;23;20088;-51
2022/05/09 03:42:45;;;;;;;1.33;0.45;;;20.50;67.70;;;;;;5096179;23;20664;-51
2022/05/09 03:44:48;;;;;;;0.60;0.43;;;20.50;67.70;;;;;;5091521;23;20350;-55
2022/05/09 03:46:51;;;;;;;0.60;0.60;;;20.50;67.60;;;;;;5066620;23;20033;-51
2022/05/09 03:48:53;;;;;;;1.23;0.57;;;20.60;67.70;;;;;;5073040;23;20112;-56
2022/05/09 03:50:56;;;;;;;0.88;0.60;;;20.50;67.60;;;;;;5094931;23;20469;-55
2022/05/09 03:52:58;;;;;;;;;;;20.50;67.60;;;;;;5093113;23;20374;-57
2022/05/09 03:55:00;;;;;;;0.95;0.73;;;20.50;67.60;;;;;;5098824;23;19920;-52
2022/05/09 03:57:02;;;;;;;1.20;0.50;;;20.50;67.60;;;;;;5094943;23;20442;-52
2022/05/09 03:59:04;;;;;;;2.93;0.67;;;20.60;67.70;;;;;;5064687;23;20025;-51
2022/05/09 04:01:08;;;;;;;0.57;0.40;;;20.50;67.60;;;;;;5070061;23;20505;-49
2022/05/09 04:03:11;;;;;;;0.90;0.47;;;20.60;67.70;;;;;;5096973;23;20041;-52
2022/05/09 04:05:17;;;;;;;0.50;0.50;;;20.60;67.70;;;;;;5091122;23;20551;-53
2022/05/09 04:07:19;;;;;;;1.55;0.60;;;20.60;67.70;;;;;;5091736;23;20056;-54
2022/05/09 04:09:22;;;;;;;1.40;0.57;;;20.60;67.60;;;;;;5097797;23;20464;-54
2022/05/09 04:11:24;;;;;;;0.40;0.30;;;20.60;67.70;;;;;;5099692;23;20068;-56
2022/05/09 04:13:26;;;;;;;0.63;0.40;;;20.60;67.80;;;;;;5092565;23;20266;-53
2022/05/09 04:17:50;;;;;;;0.75;0.50;;;20.60;67.70;;;;;;5095023;23;20024;-55
2022/05/09 04:19:52;;;;;;;0.60;0.35;;;20.70;67.70;;;;;;5090530;23;20040;-53
2022/05/09 04:21:57;;;;;;;2.08;0.50;;;20.70;67.70;;;;;;5070012;23;20690;-54
2022/05/09 04:23:59;;;;;;;1.67;0.55;;;20.70;67.70;;;;;;5066929;23;20872;-52
2022/05/09 04:26:02;;;;;;;4.15;0.60;;;20.70;67.60;;;;;;5065144;23;20163;-51
2022/05/09 04:28:06;;;;;;;0.85;0.50;;;20.80;67.50;;;;;;5098251;23;20231;-51
2022/05/09 04:30:11;;;;;;;1.45;0.50;;;20.80;67.40;;;;;;5099807;23;20551;-54
2022/05/09 04:32:14;;;;;;;0.52;0.50;;;20.90;67.20;;;;;;5067148;23;20381;-55
2022/05/09 04:34:16;;;;;;;1.95;0.63;;;21.00;67.00;;;;;;5066981;23;20746;-54
2022/05/09 04:36:18;;;;;;;1.20;0.50;;;21.00;66.90;;;;;;5097983;23;20087;-52
2022/05/09 04:38:23;;;;;;;2.30;0.40;;;21.00;66.80;;;;;;5096403;23;20665;-50
2022/05/09 04:40:31;;;;;;;1.10;0.60;;;21.00;66.80;;;;;;5093262;23;20457;-51
2022/05/09 04:42:33;;;;;;;0.60;0.40;;;21.10;66.80;;;;;;5043598;23;20648;-54
2022/05/09 04:44:35;;;;;;;0.57;0.40;;;21.10;66.80;;;;;;5097988;23;20032;-54
2022/05/09 04:46:37;;;;;;;0.50;0.50;;;21.10;66.80;;;;;;5072179;23;20071;-53
2022/05/09 04:48:41;;;;;;;1.05;0.60;;;21.10;66.90;;;;;;5094607;23;20071;-54
2022/05/09 04:50:44;;;;;;;1.05;0.40;;;21.10;66.90;;;;;;5092368;23;20032;-47
2022/05/09 04:52:46;;;;;;;0.40;0.30;;;21.10;66.90;;;;;;5097690;23;20025;-53
2022/05/09 04:54:49;;;;;;;1.48;0.47;;;21.10;67.00;;;;;;5066392;23;20128;-53
2022/05/09 04:56:51;;;;;;;2.78;0.77;;;21.10;67.00;;;;;;5092361;23;20064;-52
2022/05/09 04:58:53;;;;;;;1.95;0.68;;;21.10;67.10;;;;;;5097533;23;20040;-52
2022/05/09 05:00:56;;;;;;;2.95;0.90;;;21.10;67.10;;;;;;5097768;23;20216;-53
2022/05/09 05:02:58;;;;;;;0.30;0.30;;;21.10;67.10;;;;;;5067138;23;20036;-47
2022/05/09 05:05:00;;;;;;;1.65;0.60;;;21.10;67.10;;;;;;5092454;23;20313;-54
2022/05/09 05:07:03;;;;;;;0.50;0.40;;;21.10;67.10;;;;;;5099917;23;20425;-52
2022/05/09 05:09:05;;;;;;;1.90;0.45;;;21.20;67.20;;;;;;5094770;23;20056;-47
2022/05/09 05:11:07;;;;;;;0.85;0.50;;;21.20;67.20;;;;;;5093416;23;20047;-54
2022/05/09 05:13:09;;;;;;;1.27;0.70;;;21.10;67.10;;;;;;5099231;23;20481;-54
2022/05/09 05:15:12;;;;;;;1.63;0.75;;;21.10;67.10;;;;;;5097583;23;20402;-54
2022/05/09 05:17:15;;;;;;;0.70;0.65;;;21.10;67.20;;;;;;5095035;23;20031;-55
2022/05/09 05:19:17;;;;;;;2.23;1.40;;;21.10;67.40;;;;;;5095117;23;20028;-54
2022/05/09 05:21:19;;;;;;;18.13;16.92;;;21.20;67.50;;;;;;5074562;23;20577;-48
2022/05/09 05:23:21;;;;;;;41.35;38.67;;;21.20;67.70;;;;;;5093449;23;20156;-53
2022/05/09 05:25:27;;;;;;;47.60;44.35;;;21.20;67.90;;;;;;5095319;23;20029;-57
2022/05/09 05:27:29;;;;;;;38.10;35.70;;;21.20;67.90;;;;;;5098221;23;20265;-50
2022/05/09 05:29:31;;;;;;;32.10;29.92;;;21.20;67.80;;;;;;5097628;23;20537;-49
2022/05/09 05:31:34;;;;;;;28.73;26.90;;;21.20;67.80;;;;;;5067575;23;20333;-50
2022/05/09 05:33:36;;;;;;;25.25;23.50;;;21.20;68.00;;;;;;5093642;23;20150;-48
2022/05/09 05:35:38;;;;;;;23.38;21.80;;;21.20;67.90;;;;;;5098217;23;20032;-49
2022/05/09 05:37:41;;;;;;;22.25;20.75;;;21.20;67.80;;;;;;5090260;23;20032;-54
2022/05/09 05:39:44;;;;;;;20.42;19.13;;;21.10;67.40;;;;;;5092076;23;20052;-54
2022/05/09 05:41:46;;;;;;;18.67;17.45;;;21.20;67.80;;;;;;5097849;23;20028;-50
2022/05/09 05:43:49;;;;;;;19.33;17.98;;;21.20;67.80;;;;;;5094072;23;20296;-53
2022/05/09 05:45:56;;;;;;;17.63;16.42;;;21.10;67.80;;;;;;5065689;23;20031;-53
2022/05/09 05:47:58;;;;;;;18.17;16.90;;;21.10;67.90;;;;;;5064881;23;20025;-53
2022/05/09 05:50:00;;;;;;;18.25;16.88;;;21.10;68.00;;;;;;5072060;23;20096;-53
2022/05/09 05:52:03;;;;;;;19.95;18.55;;;21.10;68.00;;;;;;5096963;23;20413;-53
2022/05/09 05:54:06;;;;;;;31.00;28.90;;;21.10;68.00;;;;;;5094005;23;20083;-51
2022/05/09 05:56:08;;;;;;;26.83;24.92;;;21.10;68.80;;;;;;5094770;23;20097;-49
2022/05/09 05:58:10;;;;;;;25.30;23.55;;;21.10;68.90;;;;;;5097489;23;20358;-51
2022/05/09 06:00:18;;;;;;;21.42;19.92;;;21.10;69.00;;;;;;5094230;23;20477;-49
2022/05/09 06:02:22;;;;;;;18.13;16.92;;;21.10;69.10;;;;;;5093812;23;20024;-49
2022/05/09 06:04:30;;;;;;;16.30;15.05;;;21.10;69.00;;;;;;5110731;23;20453;-49
2022/05/09 06:06:32;;;;;;;14.18;13.18;;;21.10;68.90;;;;;;5120491;23;20413;-55
2022/05/09 06:08:38;;;;;;;12.57;11.73;;;21.10;68.90;;;;;;5110547;23;20517;-50
2022/05/09 06:10:40;;;;;;;11.27;10.48;;;21.10;69.00;;;;;;5105067;23;20247;-53
2022/05/09 06:12:43;;;;;;;10.52;9.75;;;21.10;69.00;;;;;;5109434;23;20025;-48
2022/05/09 06:15:24;;;;;;;10.32;9.45;;;21.10;69.00;;;;;;5107368;23;20108;-48
2022/05/09 06:17:10;;;;;;;8.18;7.57;;;21.10;69.00;;;;;;5066561;23;20089;-51
2022/05/09 06:19:12;;;;;;;7.90;7.30;;;21.10;68.90;;;;;;5098597;23;20028;-52
2022/05/09 06:21:14;;;;;;;7.45;6.85;;;21.10;69.10;;;;;;5095418;23;20724;-51
2022/05/09 06:23:19;;;;;;;6.95;6.45;;;21.10;69.10;;;;;;5093016;23;20035;-52
2022/05/09 06:25:22;;;;;;;6.38;5.88;;;21.10;69.10;;;;;;5094271;23;20551;-54
2022/05/09 06:27:25;;;;;;;8.23;7.63;;;21.10;69.20;;;;;;5098900;23;20101;-48
2022/05/09 06:29:27;;;;;;;9.10;8.40;;;21.10;69.10;;;;;;5044083;23;20614;-47
2022/05/09 06:31:30;;;;;;;8.45;7.80;;;21.10;69.30;;;;;;5092284;23;20882;-47
2022/05/09 06:33:32;;;;;;;8.30;7.60;;;21.10;69.50;;;;;;5093170;23;20032;-51
2022/05/09 06:35:46;;;;;;;7.55;6.85;;;21.10;69.50;;;;;;5095774;23;20467;-54
2022/05/09 06:37:49;;;;;;;;;;;21.10;69.60;;;;;;5095037;23;20406;-52
2022/05/09 06:39:53;;;;;;;6.72;6.22;;;21.10;69.50;;;;;;5090399;23;19947;-50
2022/05/09 06:41:55;;;;;;;6.40;5.90;;;21.20;69.50;;;;;;5090080;23;20414;-50
2022/05/09 06:43:57;;;;;;;6.43;5.93;;;21.20;69.50;;;;;;5095548;23;20099;-49
2022/05/09 06:45:59;;;;;;;6.15;5.55;;;21.20;69.70;;;;;;5091473;23;20446;-47
2022/05/09 06:48:02;;;;;;;6.00;5.50;;;21.20;69.60;;;;;;5093712;23;20029;-47
2022/05/09 06:50:05;;;;;;;5.72;5.22;;;21.20;69.50;;;;;;5095720;23;20428;-49
2022/05/09 06:52:08;;;;;;;5.68;5.18;;;21.20;69.70;;;;;;5099694;23;20039;-52
2022/05/09 06:54:10;;;;;;;6.90;6.30;;;21.20;69.50;;;;;;5091650;23;20242;-51
2022/05/09 06:56:12;;;;;;;7.80;5.50;;;21.20;69.30;;;;;;5091935;23;21043;-55
2022/05/09 06:58:25;;;;;;;5.80;5.20;;;21.20;69.40;;;;;;5096682;23;20429;-58
2022/05/09 07:00:28;;;;;;;5.20;4.75;;;21.10;69.30;;;;;;5097701;23;20028;-54
2022/05/09 07:02:33;;;;;;;5.13;4.60;;;21.10;69.50;;;;;;5096753;23;20414;-55
2022/05/09 07:04:39;;;;;;;5.43;4.93;;;21.10;69.60;;;;;;5092373;23;20032;-59
2022/05/09 07:06:41;;;;;;;4.60;4.20;;;21.10;69.70;;;;;;5090059;23;20033;-59
2022/05/09 07:08:43;;;;;;;4.80;4.40;;;21.00;69.70;;;;;;5096740;23;20044;-57
2022/05/09 07:10:46;;;;;;;4.20;3.80;;;21.10;69.80;;;;;;5096323;23;20360;-60
2022/05/09 07:12:54;;;;;;;5.03;3.23;;;21.00;69.60;;;;;;5092668;23;20029;-47
2022/05/09 07:14:57;;;;;;;8.25;3.53;;;21.00;70.10;;;;;;5091736;23;20427;-62
2022/05/09 07:16:59;;;;;;;8.77;4.63;;;21.00;70.30;;;;;;5098236;23;20562;-61
2022/05/09 07:19:01;;;;;;;7.40;5.45;;;21.00;70.10;;;;;;5069577;23;20933;-63
2022/05/09 07:21:03;;;;;;;8.60;7.70;;;21.00;69.60;;;;;;5093405;23;20230;-61
2022/05/09 07:23:11;;;;;;;7.70;7.03;;;21.00;69.30;;;;;;5095711;23;20029;-60
2022/05/09 07:25:15;;;;;;;12.82;7.82;;;21.00;69.10;;;;;;5099497;23;20028;-60
2022/05/09 07:27:17;;;;;;;7.95;7.32;;;21.00;69.10;;;;;;5067878;23;20109;-61
2022/05/09 07:29:19;;;;;;;7.00;6.40;;;20.90;69.10;;;;;;5092350;23;20047;-62
2022/05/09 07:31:21;;;;;;;6.93;6.30;;;20.90;69.10;;;;;;5093025;23;20090;-62
2022/05/09 07:33:23;;;;;;;6.80;6.10;;;20.90;69.20;;;;;;5097888;23;20642;-61
2022/05/09 07:35:26;;;;;;;6.70;6.20;;;20.80;69.20;;;;;;5089486;23;20449;-61
2022/05/09 07:37:30;;;;;;;5.55;5.05;;;20.80;69.20;;;;;;5065171;23;20028;-60
2022/05/09 07:39:32;;;;;;;6.95;5.75;;;20.80;69.30;;;;;;5098119;23;20140;-62
2022/05/09 07:41:35;;;;;;;5.93;5.32;;;20.80;69.40;;;;;;5097778;23;20163;-63
2022/05/09 07:43:37;;;;;;;5.17;4.67;;;20.70;69.40;;;;;;5068011;23;20365;-63
2022/05/09 07:45:40;;;;;;;5.95;4.88;;;20.80;69.50;;;;;;5094713;23;20078;-62
2022/05/09 07:47:42;;;;;;;5.30;4.80;;;20.70;69.50;;;;;;5099908;23;20056;-64
2022/05/09 07:49:45;;;;;;;5.10;4.60;;;20.70;69.50;;;;;;5093041;23;20602;-63
2022/05/09 07:51:47;;;;;;;4.57;3.97;;;20.70;69.50;;;;;;5094036;23;20356;-63
2022/05/09 07:53:49;;;;;;;4.85;3.97;;;20.60;69.60;;;;;;5101359;23;20103;-63
2022/05/09 07:55:52;;;;;;;3.92;3.25;;;20.60;69.60;;;;;;5090249;23;20737;-63
2022/05/09 07:57:54;;;;;;;4.30;3.60;;;20.60;69.80;;;;;;5093538;23;20028;-63
2022/05/09 07:59:58;;;;;;;3.50;3.20;;;20.60;69.70;;;;;;5099248;23;20329;-64
2022/05/09 08:02:00;;;;;;;4.72;3.53;;;20.50;69.90;;;;;;5102861;23;20615;-63
2022/05/09 08:04:02;;;;;;;3.60;2.83;;;20.50;69.90;;;;;;5095049;23;20033;-63
2022/05/09 08:06:05;;;;;;;3.28;2.83;;;20.50;69.90;;;;;;5095624;23;20037;-63
2022/05/09 08:08:07;;;;;;;6.00;2.90;;;20.50;70.00;;;;;;5101837;23;20036;-63
2022/05/09 08:10:11;;;;;;;6.10;2.80;;;20.50;70.00;;;;;;5095896;23;20403;-62
2022/05/09 08:12:13;;;;;;;2.97;2.38;;;20.50;70.10;;;;;;5095369;23;20534;-62
2022/05/09 08:14:16;;;;;;;3.30;2.50;;;20.40;70.00;;;;;;5093456;23;20032;-63
2022/05/09 08:16:19;;;;;;;4.57;2.40;;;20.40;70.20;;;;;;5100750;23;20857;-63
2022/05/09 08:18:21;;;;;;;2.80;2.30;;;20.40;70.20;;;;;;5096454;23;20032;-63
2022/05/09 08:20:24;;;;;;;2.67;2.20;;;20.40;70.20;;;;;;5094075;23;20042;-63
2022/05/09 08:22:28;;;;;;;3.67;2.20;;;20.40;70.30;;;;;;5074662;23;20029;-63
2022/05/09 08:24:30;;;;;;;3.45;2.05;;;20.30;70.20;;;;;;5096669;23;20079;-63
2022/05/09 08:26:33;;;;;;;2.53;1.90;;;20.30;70.40;;;;;;5067120;23;20211;-63
2022/05/09 08:28:35;;;;;;;3.20;1.70;;;20.30;70.40;;;;;;5097954;23;20032;-63
2022/05/09 08:30:38;;;;;;;2.17;1.83;;;20.30;70.40;;;;;;5074054;23;20524;-64
2022/05/09 08:32:40;;;;;;;3.50;1.67;;;20.30;70.50;;;;;;5094389;23;20040;-64
2022/05/09 08:34:42;;;;;;;2.10;1.45;;;20.30;70.50;;;;;;5094873;23;20521;-63
2022/05/09 08:36:53;;;;;;;3.95;1.98;;;20.30;70.70;;;;;;5100688;23;20112;-64
2022/05/09 08:38:55;;;;;;;2.25;1.50;;;20.30;70.60;;;;;;5101105;23;20425;-64
2022/05/09 08:41:13;;;;;;;2.67;1.77;;;20.30;70.70;;;;;;5094419;23;20329;-64
2022/05/09 08:44:10;;;;;;;3.47;1.85;;;20.20;70.60;;;;;;5098352;23;20435;-63
2022/05/09 08:46:17;;;;;;;2.22;1.33;;;20.20;70.60;;;;;;5073071;23;20036;-62
2022/05/09 08:48:25;;;;;;;2.65;1.48;;;20.20;70.80;;;;;;5100831;23;20091;-64
2022/05/09 08:50:55;;;;;;;3.85;1.83;;;20.20;70.80;;;;;;5097557;23;20476;-63
2022/05/09 08:53:01;;;;;;;2.58;1.30;;;20.20;70.90;;;;;;5095123;23;20114;-63
2022/05/09 08:55:04;;;;;;;2.28;1.42;;;20.20;70.90;;;;;;5091101;23;20055;-63
2022/05/09 08:57:12;;;;;;;2.25;1.30;;;20.20;70.90;;;;;;5100403;23;20029;-63
2022/05/09 08:59:23;;;;;;;2.25;1.30;;;20.10;71.10;;;;;;5101013;23;20523;-62
2022/05/09 09:01:55;;;;;;;4.55;1.60;;;20.10;70.90;;;;;;5100625;23;20209;-63
2022/05/09 09:04:04;;;;;;;3.80;1.50;;;20.10;70.90;;;;;;5096395;23;20082;-63
2022/05/09 09:06:34;;;;;;;2.40;1.20;;;20.10;70.90;;;;;;5096058;23;20592;-63
2022/05/09 09:08:58;;;;;;;2.13;1.23;;;20.10;71.00;;;;;;5096227;23;20031;-63
2022/05/09 09:11:16;;;;;;;2.47;1.30;;;20.10;70.90;;;;;;5068301;23;20077;-63
2022/05/09 09:13:24;;;;;;;3.45;1.65;;;20.10;70.90;;;;;;5094108;23;20071;-63
2022/05/09 09:15:32;;;;;;;2.20;1.27;;;20.10;71.00;;;;;;5045321;23;20030;-63
2022/05/09 09:17:52;;;;;;;1.23;1.02;;;20.00;71.00;;;;;;5069382;23;20749;-63
2022/05/09 09:20:03;;;;;;;1.83;1.10;;;20.00;71.00;;;;;;5095389;23;20453;-63
2022/05/09 09:22:31;;;;;;;1.20;1.00;;;20.00;70.90;;;;;;5089875;23;20032;-63
2022/05/09 09:24:48;;;;;;;1.92;1.00;;;20.00;70.90;;;;;;5100184;23;20780;-63
2022/05/09 09:27:31;;;;;;;1.73;1.10;;;20.00;71.00;;;;;;5101066;23;20035;-62
2022/05/09 09:29:46;;;;;;;1.60;0.93;;;20.00;70.90;;;;;;5083594;23;20033;-63
2022/05/09 09:31:54;;;;;;;1.83;1.10;;;20.00;71.00;;;;;;5101394;23;20028;-62
2022/05/09 09:34:38;;;;;;;2.67;1.20;;;20.00;71.00;;;;;;5076148;23;20483;-63
2022/05/09 09:36:45;;;;;;;2.42;1.27;;;20.00;71.10;;;;;;5074515;23;20612;-62
2022/05/09 09:39:07;;;;;;;1.52;1.08;;;19.90;71.00;;;;;;5096064;23;20534;-62
2022/05/09 09:41:30;;;;;;;2.35;1.10;;;19.90;71.00;;;;;;5099920;23;20056;-63
2022/05/09 09:43:32;;;;;;;1.85;1.33;;;19.90;71.00;;;;;;5096075;23;20040;-62
2022/05/09 09:45:44;;;;;;;1.27;0.82;;;19.90;71.10;;;;;;5100908;23;20033;-62
2022/05/09 09:47:46;;;;;;;1.70;0.93;;;19.90;71.10;;;;;;5071826;23;20525;-62
2022/05/09 09:49:50;;;;;;;1.27;0.90;;;19.90;71.00;;;;;;5094631;23;20436;-62
2022/05/09 09:51:52;;;;;;;1.75;1.00;;;19.90;71.10;;;;;;5094929;23;20481;-62
2022/05/09 09:54:03;;;;;;;1.52;1.00;;;19.90;71.10;;;;;;5097064;23;20027;-63
2022/05/09 09:56:25;;;;;;;2.25;1.15;;;19.90;71.10;;;;;;5097728;23;20036;-62
2022/05/09 09:58:29;;;;;;;2.25;1.02;;;19.80;71.20;;;;;;5066364;23;20029;-62
2022/05/09 10:00:37;;;;;;;2.47;1.10;;;19.90;71.20;;;;;;5069525;23;20065;-64
2022/05/09 10:02:39;;;;;;;2.28;1.30;;;19.80;71.20;;;;;;5070538;23;20347;-62
2022/05/09 10:04:42;;;;;;;1.30;0.97;;;19.80;71.10;;;;;;5069570;23;20587;-62
2022/05/09 10:07:11;;;;;;;1.05;0.95;;;19.80;71.10;;;;;;5067813;23;20029;-63
2022/05/09 10:09:21;;;;;;;1.60;0.90;;;19.90;71.20;;;;;;5075100;23;20029;-63
2022/05/09 10:11:28;;;;;;;2.53;1.27;;;19.90;71.90;;;;;;5075250;23;20036;-63
2022/05/09 10:13:42;;;;;;;1.63;1.10;;;19.80;71.20;;;;;;5098157;23;20024;-63
2022/05/09 10:15:45;;;;;;;1.10;0.77;;;19.80;71.30;;;;;;5102879;23;20424;-63
2022/05/09 10:17:48;;;;;;;1.42;0.98;;;19.80;71.20;;;;;;5091416;23;20150;-62
2022/05/09 10:19:51;;;;;;;1.45;1.17;;;19.80;71.30;;;;;;5067442;23;20056;-62
2022/05/09 10:24:49;;;;;;;1.58;0.70;;;19.80;71.30;;;;;;5068712;23;20038;-63
2022/05/09 10:26:53;;;;;;;1.40;1.10;;;19.80;71.20;;;;;;5099462;23;20028;-63
2022/05/09 10:29:15;;;;;;;1.73;0.98;;;19.80;71.20;;;;;;5079134;23;20442;-63
2022/05/09 10:31:42;;;;;;;1.20;0.80;;;19.80;71.30;;;;;;5109251;23;20033;-63
2022/05/09 10:33:54;;;;;;;1.98;0.77;;;19.80;71.30;;;;;;5110264;23;20030;-63
2022/05/09 10:36:01;;;;;;;2.00;1.00;;;19.80;71.40;;;;;;5111016;23;20036;-62
2022/05/09 10:38:07;;;;;;;1.52;1.23;;;19.80;71.90;;;;;;5074689;23;20147;-62
2022/05/09 10:40:35;;;;;;;2.10;1.00;;;19.80;71.30;;;;;;5109216;23;20413;-62
2022/05/09 10:43:05;;;;;;;1.33;0.98;;;19.80;71.40;;;;;;5070282;23;20550;-61
2022/05/09 10:45:41;;;;;;;1.58;0.90;;;19.80;71.40;;;;;;5094927;23;20799;-63
2022/05/09 10:48:08;;;;;;;1.38;0.93;;;19.70;71.40;;;;;;5099653;23;20028;-62
2022/05/09 10:50:49;;;;;;;1.40;0.80;;;19.80;71.50;;;;;;5094825;23;20083;-62
2022/05/09 10:53:06;;;;;;;1.40;1.10;;;19.70;71.40;;;;;;5095602;23;20032;-62
2022/05/09 10:55:25;;;;;;;1.85;1.13;;;19.70;71.40;;;;;;5094330;23;20375;-62
2022/05/09 10:57:41;;;;;;;1.63;0.90;;;19.70;71.40;;;;;;5070217;23;20135;-61
2022/05/09 10:59:45;;;;;;;1.63;1.02;;;19.70;71.40;;;;;;5071543;23;20058;-63
2022/05/09 11:02:12;;;;;;;1.13;0.88;;;19.70;71.40;;;;;;5093211;23;20032;-63
2022/05/09 11:04:15;;;;;;;2.05;1.08;;;19.70;71.50;;;;;;5100582;23;20083;-63